Marlinton, WV

11:56 AM EDT on August 22, 2014 (GMT -0400)
KC8LRN and N8SUE | Change Station
CLOSE
Current Station
Personal Weather Station
Location: Pocahontas County Hillsboro, WV
Elevation: 2400 ft
Nearby Weather Stations
Active Advisory: Flash Flood Watch

Elev 2400 ft 38.14 °N, 80.18 °W | Updated 3 seconds ago

Overcast
Overcast
70.5 °F
Feels Like 70 °F
N
3.0
Wind Variable Wind from SSE
Gusts 3.2 mph

Today
High -- | Low -- °F
--% Chance of Precip.
Yesterday
High -- | Low -- °F
Precip. -- in
6:41 AM 8:04 PM
Waning Crescent, 8% visible
Pressure 30.18 in
Visibility 7.0 miles
Clouds Overcast 200 ft
Heat Index 70 °F
Dew Point 65 °F
Humidity 82%
Rainfall 0.09 in
Snow Depth Not available.
UV 3 out of 12
Pollen 7.60 out of 12
Air Quality Not available.
Flu Activity Not available.
METAR KHSP 221515Z AUTO 28013G17KT 7SM OVC002 18/18 A3018 RMK AO2 T01750175

More Conditions Fewer Conditions

Pressure 30.18 in
Visibility 7.0 miles
Clouds Overcast 200 ft
Heat Index 70 °F
Dew Point 65 °F
Humidity 82%
Rainfall 0.09 in
Snow Depth Not available.
UV 3 out of 12
Pollen 7.60 out of 12
Air Quality Not available.
Flu Activity Not available.
METAR KHSP 221515Z AUTO 28013G17KT 7SM OVC002 18/18 A3018 RMK AO2 T01750175

More Conditions Fewer Conditions

10-Day Weather Forecast

Almanac

Astronomy

Aug. 22, 2014 Rise Set
Actual Time 6:41 AM EDT 8:04 PM EDT
Civil Twilight 6:13 AM EDT 8:31 PM EDT
Nautical Twilight 5:40 AM EDT 9:04 PM EDT
Astronomical Twilight 5:05 AM EDT 9:39 PM EDT
Moon 4:03 AM EDT 6:10 PM EDT
Length of Visible Light 14h 18m
Length of Day
13h 23m
Tomorrow will be 2m 15s shorter.
Waning Crescent, 8% of the Moon is Illuminated
Today
Waning Crescent
Aug 25
New
Sep 2
First Quarter
Sep 8
Full
Sep 15
Last Quarter

Today's Extremes

State Highs State Lows

Community

WunderPhotos

Upload Photos

1,746,188 photos uploaded!

Nearby

Snow Depth

Station Depth Elevation
No new snow has been reported.

Earthquake Activity

City Distance Mag. Time & Date
No recent earthquake activity has been reported nearby.
Minimum magnitude displayed is 2.5.

Coastal Water Temperatures

Place Temperature
No Stations Reporting

Nearby Weather Stations